Time;durP1;ratioP1;P1;durP2;ratioP2;P2;SDS_P1;SDS_P2;PMS_P1;PMS_P2;Temp;Humidity;BMP_temperature;BMP_pressure;BME280_temperature;BME280_humidity;BME280_pressure;Samples;Min_cycle;Max_cycle;Signal;HPM_P1;HPM_P2
2023/11/29 00:02:26;;;;;;;12.52;4.30;;;3.20;99.90;;;;;;5019760;28;20049;-67
2023/11/29 00:04:53;;;;;;;8.48;3.63;;;3.20;99.90;;;;;;5028029;28;20048;-67
2023/11/29 00:07:20;;;;;;;8.48;4.00;;;3.20;99.90;;;;;;5029475;28;20095;-67
2023/11/29 00:09:47;;;;;;;9.48;4.25;;;3.20;99.90;;;;;;5029090;28;20575;-66
2023/11/29 00:12:14;;;;;;;10.93;3.85;;;3.10;99.90;;;;;;5012427;28;20109;-66
2023/11/29 00:14:40;;;;;;;10.57;3.63;;;3.20;99.90;;;;;;5010863;28;20192;-67
2023/11/29 00:17:07;;;;;;;12.07;3.88;;;3.10;99.90;;;;;;5010695;28;20133;-67
2023/11/29 00:19:37;;;;;;;10.88;4.68;;;3.20;99.90;;;;;;5028131;28;20057;-66
2023/11/29 00:22:05;;;;;;;6.20;3.20;;;3.10;99.90;;;;;;5011189;28;20619;-66
2023/11/29 00:24:32;;;;;;;8.75;3.53;;;3.10;99.90;;;;;;5028592;28;20072;-66
2023/11/29 00:26:59;;;;;;;9.07;3.75;;;3.10;99.90;;;;;;5028333;28;20094;-66
2023/11/29 00:29:27;;;;;;;9.70;3.65;;;3.10;99.90;;;;;;5028739;28;20049;-66
2023/11/29 00:31:54;;;;;;;12.50;4.38;;;3.20;99.90;;;;;;5027808;28;20037;-66
2023/11/29 00:34:21;;;;;;;13.38;5.50;;;3.10;99.90;;;;;;5028527;28;20053;-66
2023/11/29 00:36:49;;;;;;;9.10;3.42;;;3.10;99.90;;;;;;5029300;28;20046;-66
2023/11/29 00:39:16;;;;;;;10.43;4.00;;;3.10;99.90;;;;;;5025688;28;20488;-66
2023/11/29 00:41:43;;;;;;;9.52;4.28;;;3.10;99.90;;;;;;5028770;28;20045;-66
2023/11/29 00:44:10;;;;;;;6.70;3.53;;;3.10;99.90;;;;;;5019850;28;20140;-65
2023/11/29 00:46:37;;;;;;;10.00;3.67;;;3.00;99.90;;;;;;5026845;28;20044;-67
2023/11/29 00:49:04;;;;;;;10.93;3.63;;;3.10;99.90;;;;;;5027841;28;20072;-66
2023/11/29 00:51:31;;;;;;;8.73;3.35;;;3.00;99.90;;;;;;5028418;28;20053;-66
2023/11/29 00:53:57;;;;;;;10.77;3.95;;;3.00;99.90;;;;;;5010380;28;20520;-66
2023/11/29 00:56:24;;;;;;;10.63;3.70;;;3.00;99.90;;;;;;5025414;28;20260;-66
2023/11/29 00:58:51;;;;;;;5.82;3.08;;;3.00;99.90;;;;;;5026219;28;20049;-66
2023/11/29 01:01:18;;;;;;;9.25;3.58;;;3.00;99.90;;;;;;4676309;28;9999832;-66
2023/11/29 01:03:45;;;;;;;6.93;3.55;;;3.00;99.90;;;;;;5024833;28;20045;-67
2023/11/29 01:06:12;;;;;;;6.70;3.65;;;3.00;99.90;;;;;;5027857;28;20527;-67
2023/11/29 01:08:39;;;;;;;8.20;3.97;;;3.00;99.90;;;;;;5027833;28;20041;-66
2023/11/29 01:11:06;;;;;;;11.15;3.90;;;3.10;99.90;;;;;;5010049;28;20404;-66
2023/11/29 01:13:33;;;;;;;7.78;4.05;;;3.10;99.90;;;;;;5027121;28;20418;-67
2023/11/29 01:16:00;;;;;;;10.38;3.33;;;3.10;99.90;;;;;;5027912;28;20481;-67
2023/11/29 01:18:27;;;;;;;10.43;3.33;;;3.10;99.90;;;;;;5027359;28;20045;-66
2023/11/29 01:20:55;;;;;;;10.32;3.90;;;3.20;99.90;;;;;;5027743;28;20135;-66
2023/11/29 01:23:21;;;;;;;15.77;3.53;;;3.20;99.90;;;;;;5025597;28;20100;-67
2023/11/29 01:25:48;;;;;;;8.27;3.80;;;3.20;99.90;;;;;;5028624;28;20050;-67
2023/11/29 01:28:15;;;;;;;12.38;3.67;;;3.20;99.90;;;;;;5029044;28;20121;-67
2023/11/29 01:30:42;;;;;;;13.32;5.70;;;3.20;99.90;;;;;;5030330;28;20546;-67
2023/11/29 01:33:09;;;;;;;7.03;3.95;;;3.30;99.90;;;;;;5027231;28;20046;-67
2023/11/29 01:35:36;;;;;;;8.30;3.92;;;3.30;99.90;;;;;;5028020;28;20053;-67
2023/11/29 01:38:03;;;;;;;7.20;4.75;;;3.30;99.90;;;;;;5027635;28;20049;-66
2023/11/29 01:40:30;;;;;;;8.82;3.72;;;3.30;99.90;;;;;;5010490;28;20107;-66
2023/11/29 01:42:57;;;;;;;8.13;3.80;;;3.30;99.90;;;;;;5024912;28;20064;-67
2023/11/29 01:45:23;;;;;;;9.57;3.90;;;3.30;99.90;;;;;;5025548;28;20160;-67
2023/11/29 01:47:50;;;;;;;6.15;3.60;;;3.30;99.90;;;;;;5027626;28;20095;-67
2023/11/29 01:50:18;;;;;;;11.27;4.95;;;3.40;99.90;;;;;;5027719;28;20129;-67
2023/11/29 01:52:45;;;;;;;5.88;4.00;;;3.40;99.90;;;;;;5028594;28;20503;-65
2023/11/29 01:55:12;;;;;;;10.88;4.32;;;3.50;99.90;;;;;;5010388;28;20052;-67
2023/11/29 01:57:41;;;;;;;9.13;3.67;;;3.50;99.90;;;;;;5010446;28;20057;-66
2023/11/29 02:00:09;;;;;;;8.73;4.18;;;3.50;99.90;;;;;;5027557;28;20081;-66
2023/11/29 02:02:36;;;;;;;8.52;3.72;;;3.50;99.90;;;;;;5027669;28;20046;-66
2023/11/29 02:05:04;;;;;;;5.57;2.97;;;3.50;99.90;;;;;;4993450;28;20096;-66
2023/11/29 02:07:30;;;;;;;9.45;3.58;;;3.50;99.90;;;;;;5010471;28;20504;-67
2023/11/29 02:09:57;;;;;;;8.90;3.47;;;3.60;99.90;;;;;;5024106;28;20452;-66
2023/11/29 02:12:24;;;;;;;9.07;3.75;;;3.60;99.90;;;;;;5027894;28;20046;-67
2023/11/29 02:14:54;;;;;;;9.20;3.58;;;3.60;99.90;;;;;;5026720;28;20115;-67
2023/11/29 02:17:21;;;;;;;7.95;3.20;;;3.70;99.90;;;;;;5012632;28;20057;-67
2023/11/29 02:19:48;;;;;;;4.75;3.13;;;3.70;99.90;;;;;;5030658;28;20065;-67
2023/11/29 02:22:15;;;;;;;7.88;3.67;;;3.70;99.90;;;;;;5031929;28;20049;-65
2023/11/29 02:24:42;;;;;;;5.32;3.17;;;3.70;99.90;;;;;;5030397;28;20042;-66
2023/11/29 02:27:09;;;;;;;9.77;3.50;;;3.70;99.90;;;;;;5029688;28;20046;-66
2023/11/29 02:29:38;;;;;;;7.38;3.25;;;3.80;99.90;;;;;;5029984;28;20131;-65
2023/11/29 02:32:06;;;;;;;6.20;3.33;;;3.80;99.90;;;;;;5030478;28;20554;-66
2023/11/29 02:34:35;;;;;;;12.05;3.45;;;3.80;99.90;;;;;;5011807;28;20442;-66
2023/11/29 02:37:03;;;;;;;5.30;3.28;;;3.80;99.90;;;;;;5030213;28;20041;-65
2023/11/29 02:39:30;;;;;;;11.73;4.00;;;3.80;99.90;;;;;;5027817;28;20150;-69
2023/11/29 02:41:57;;;;;;;9.00;2.83;;;3.90;99.90;;;;;;5029348;28;20050;-66
2023/11/29 02:44:24;;;;;;;7.07;3.47;;;4.00;99.90;;;;;;5030226;28;20042;-65
2023/11/29 02:46:51;;;;;;;5.75;2.95;;;4.00;99.90;;;;;;5030085;28;20463;-66
2023/11/29 02:49:18;;;;;;;8.43;4.75;;;4.00;99.90;;;;;;5026786;28;20063;-65
2023/11/29 02:51:45;;;;;;;7.90;3.60;;;4.00;99.90;;;;;;5012960;28;20056;-67
2023/11/29 02:54:12;;;;;;;12.80;3.90;;;4.00;99.90;;;;;;5026651;28;20044;-67
2023/11/29 02:56:38;;;;;;;6.72;3.80;;;4.10;99.90;;;;;;5028649;28;20045;-67
2023/11/29 02:59:05;;;;;;;9.57;3.20;;;4.10;99.90;;;;;;5025205;28;20079;-65
2023/11/29 03:01:33;;;;;;;9.82;3.05;;;4.10;99.90;;;;;;5027950;28;20075;-66
2023/11/29 03:04:00;;;;;;;7.68;2.90;;;4.10;99.90;;;;;;5028290;28;20433;-64
2023/11/29 03:06:26;;;;;;;9.63;3.25;;;4.10;99.90;;;;;;5029210;28;20085;-65
2023/11/29 03:08:53;;;;;;;5.45;2.90;;;4.10;99.90;;;;;;5029891;28;20049;-65
2023/11/29 03:11:20;;;;;;;9.48;2.88;;;4.10;99.90;;;;;;5009118;28;20045;-67
2023/11/29 03:13:47;;;;;;;6.55;3.38;;;4.10;99.90;;;;;;5029928;28;20049;-67
2023/11/29 03:16:14;;;;;;;5.85;2.80;;;4.10;99.90;;;;;;5029456;28;20057;-67
2023/11/29 03:18:40;;;;;;;6.65;3.67;;;4.20;99.90;;;;;;5011972;28;20057;-68
2023/11/29 03:21:07;;;;;;;4.75;2.45;;;4.20;99.90;;;;;;5012091;28;20053;-67
2023/11/29 03:23:34;;;;;;;6.72;2.55;;;4.20;99.90;;;;;;5029859;28;20041;-67
2023/11/29 03:26:04;;;;;;;7.72;2.83;;;4.20;99.90;;;;;;5029261;28;20053;-67
2023/11/29 03:28:31;;;;;;;5.75;3.05;;;4.20;99.90;;;;;;5028116;28;20152;-67
2023/11/29 03:30:58;;;;;;;6.63;3.42;;;4.20;99.90;;;;;;5029118;28;20529;-67
2023/11/29 03:33:25;;;;;;;6.05;3.03;;;4.30;99.90;;;;;;5028996;28;20053;-66
2023/11/29 03:35:52;;;;;;;11.50;3.80;;;4.20;99.90;;;;;;5029585;28;20420;-67
2023/11/29 03:38:19;;;;;;;3.78;2.47;;;4.30;99.90;;;;;;5026826;28;20041;-69
2023/11/29 03:40:46;;;;;;;6.65;3.25;;;4.30;99.90;;;;;;5029430;28;20117;-66
2023/11/29 03:43:13;;;;;;;7.57;3.33;;;4.30;99.90;;;;;;5022190;28;20087;-65
2023/11/29 03:45:40;;;;;;;6.05;2.70;;;4.40;99.90;;;;;;5011696;28;20050;-67
2023/11/29 03:48:07;;;;;;;7.78;3.50;;;4.40;99.90;;;;;;5028578;28;20049;-66
2023/11/29 03:50:34;;;;;;;6.22;3.47;;;4.40;99.90;;;;;;5019201;28;20065;-65
2023/11/29 03:53:01;;;;;;;6.45;3.58;;;4.40;99.90;;;;;;5032898;28;20046;-67
2023/11/29 03:55:28;;;;;;;6.18;3.47;;;4.30;99.90;;;;;;5029386;28;20061;-65
2023/11/29 03:57:55;;;;;;;6.55;3.38;;;4.30;99.90;;;;;;5028473;28;20448;-65
2023/11/29 04:00:22;;;;;;;8.95;4.00;;;4.30;99.90;;;;;;5027164;28;20049;-65
2023/11/29 04:02:49;;;;;;;7.53;3.78;;;4.40;99.90;;;;;;5011414;28;20081;-66
2023/11/29 04:05:16;;;;;;;12.20;3.47;;;4.40;99.90;;;;;;5026099;28;20057;-65
2023/11/29 04:07:43;;;;;;;8.35;3.00;;;4.40;99.90;;;;;;5027207;28;20095;-65
2023/11/29 04:10:10;;;;;;;5.28;3.22;;;4.30;99.90;;;;;;5029167;28;20053;-64
2023/11/29 04:12:37;;;;;;;6.72;3.17;;;4.30;99.90;;;;;;5027542;28;20064;-65
2023/11/29 04:15:04;;;;;;;9.82;3.67;;;4.30;99.90;;;;;;5009688;28;20093;-65
2023/11/29 04:17:31;;;;;;;5.53;3.35;;;4.30;99.90;;;;;;5028880;28;20057;-67
2023/11/29 04:19:58;;;;;;;8.63;3.33;;;4.30;99.90;;;;;;5027901;28;20088;-67
2023/11/29 04:22:25;;;;;;;7.22;3.03;;;4.40;99.90;;;;;;5008897;28;20045;-65
2023/11/29 04:24:52;;;;;;;6.68;3.03;;;4.40;99.90;;;;;;5018623;28;20400;-65
2023/11/29 04:27:19;;;;;;;6.18;3.35;;;4.30;99.90;;;;;;5024505;28;20052;-65
2023/11/29 04:29:45;;;;;;;5.65;3.78;;;4.30;99.90;;;;;;5027877;28;20041;-67
2023/11/29 04:32:13;;;;;;;6.25;2.85;;;4.40;99.90;;;;;;5010505;28;20048;-66
2023/11/29 04:34:39;;;;;;;9.10;4.22;;;4.30;99.90;;;;;;5027791;28;20059;-68
2023/11/29 04:37:14;;;;;;;;;;;4.30;99.90;;;;;;5027145;28;20454;-67
2023/11/29 04:39:42;;;;;;;7.85;2.90;;;4.20;99.90;;;;;;5010005;28;19920;-68
2023/11/29 04:42:09;;;;;;;8.05;3.58;;;4.20;99.90;;;;;;5027675;28;20041;-67
2023/11/29 04:44:36;;;;;;;8.57;3.63;;;4.20;99.90;;;;;;5007390;28;20095;-67
2023/11/29 04:47:03;;;;;;;5.78;3.83;;;4.20;99.90;;;;;;5010039;28;20073;-67
2023/11/29 04:49:30;;;;;;;10.75;3.55;;;4.20;99.90;;;;;;5009959;28;20500;-67
2023/11/29 04:51:57;;;;;;;10.75;4.60;;;4.20;99.90;;;;;;5027699;28;20484;-67
2023/11/29 04:54:24;;;;;;;6.93;3.10;;;4.00;99.90;;;;;;5024866;28;20045;-67
2023/11/29 04:56:51;;;;;;;11.13;4.65;;;4.20;99.90;;;;;;5028480;28;20400;-67
2023/11/29 04:59:18;;;;;;;6.90;3.50;;;4.20;99.90;;;;;;5010401;28;20052;-66
2023/11/29 05:01:45;;;;;;;6.18;4.25;;;4.10;99.90;;;;;;5027738;28;20053;-67
2023/11/29 05:04:12;;;;;;;7.05;3.75;;;4.10;99.90;;;;;;5027453;28;20041;-67
2023/11/29 05:06:39;;;;;;;9.52;3.50;;;4.20;99.90;;;;;;5010174;28;20261;-67
2023/11/29 05:09:06;;;;;;;7.85;3.92;;;4.20;99.90;;;;;;5008258;28;20493;-66
2023/11/29 05:11:33;;;;;;;11.57;4.03;;;4.20;99.90;;;;;;5025107;28;20045;-66
2023/11/29 05:14:00;;;;;;;6.05;3.15;;;4.20;99.90;;;;;;5025783;28;20095;-66
2023/11/29 05:16:28;;;;;;;8.50;3.83;;;4.30;99.90;;;;;;5009581;28;20176;-67
2023/11/29 05:18:55;;;;;;;6.75;3.85;;;4.20;99.90;;;;;;5027957;28;20099;-67
2023/11/29 05:21:22;;;;;;;8.77;4.10;;;4.20;99.90;;;;;;5027499;28;20139;-66
2023/11/29 05:23:49;;;;;;;9.55;3.95;;;4.20;99.90;;;;;;4990020;28;20049;-66
2023/11/29 05:26:16;;;;;;;8.80;4.03;;;4.20;99.90;;;;;;5028050;28;20523;-67
2023/11/29 05:28:43;;;;;;;8.40;4.95;;;4.20;99.90;;;;;;5027325;28;20536;-68
2023/11/29 05:31:10;;;;;;;9.40;4.20;;;4.20;99.90;;;;;;5027451;28;20042;-67
2023/11/29 05:33:37;;;;;;;5.65;3.10;;;4.20;99.90;;;;;;5027890;28;20038;-65
2023/11/29 05:36:05;;;;;;;6.10;3.58;;;4.20;99.90;;;;;;5007752;28;20049;-66
2023/11/29 05:38:33;;;;;;;6.15;3.75;;;4.10;99.90;;;;;;5025543;28;20050;-67
2023/11/29 05:41:00;;;;;;;6.20;3.65;;;4.10;99.90;;;;;;5027684;28;20099;-66
2023/11/29 05:43:27;;;;;;;13.00;4.32;;;4.00;99.90;;;;;;5027606;28;20115;-66
2023/11/29 05:45:54;;;;;;;7.50;3.45;;;3.90;99.90;;;;;;5027536;28;20053;-68
2023/11/29 05:48:21;;;;;;;19.80;5.82;;;3.90;99.90;;;;;;5025954;28;20041;-65
2023/11/29 05:50:48;;;;;;;13.00;5.43;;;3.80;99.90;;;;;;5027302;28;20487;-65
2023/11/29 05:53:17;;;;;;;9.88;4.10;;;3.80;99.90;;;;;;5031825;28;20081;-66
2023/11/29 05:55:44;;;;;;;9.07;4.05;;;3.80;99.90;;;;;;5014634;28;20053;-66
2023/11/29 05:58:11;;;;;;;5.43;4.18;;;3.70;99.90;;;;;;5013089;28;20048;-66
2023/11/29 06:00:38;;;;;;;7.40;4.07;;;3.70;99.90;;;;;;5013607;28;20084;-65
2023/11/29 06:03:06;;;;;;;10.60;4.13;;;3.60;99.90;;;;;;5027876;28;20115;-66
2023/11/29 06:05:34;;;;;;;24.63;4.80;;;3.60;99.90;;;;;;5031087;28;20049;-65
2023/11/29 06:08:01;;;;;;;12.25;3.92;;;3.60;99.90;;;;;;5030864;28;20053;-65
2023/11/29 06:10:28;;;;;;;7.93;3.92;;;3.60;99.90;;;;;;5031343;28;20045;-66
2023/11/29 06:12:55;;;;;;;8.85;4.28;;;3.70;99.90;;;;;;5030885;28;20045;-66
2023/11/29 06:15:21;;;;;;;10.05;3.97;;;3.70;99.90;;;;;;5031690;28;20050;-66
2023/11/29 06:17:48;;;;;;;10.50;4.32;;;3.70;99.90;;;;;;5016531;28;20489;-66
2023/11/29 06:20:18;;;;;;;14.70;5.20;;;3.80;99.90;;;;;;5019974;28;20053;-66
2023/11/29 06:22:47;;;;;;;7.72;3.95;;;3.80;99.90;;;;;;5026522;28;20038;-65
2023/11/29 06:25:14;;;;;;;8.25;3.80;;;3.80;99.90;;;;;;5009016;28;20053;-66
2023/11/29 06:27:44;;;;;;;15.60;4.03;;;3.80;99.90;;;;;;5030118;28;20051;-66
2023/11/29 06:30:11;;;;;;;11.32;3.90;;;3.70;99.90;;;;;;5030159;28;20086;-66
2023/11/29 06:32:38;;;;;;;13.82;5.05;;;3.70;99.90;;;;;;5029951;28;20061;-66
2023/11/29 06:35:05;;;;;;;7.30;4.45;;;3.60;99.90;;;;;;5029151;28;20041;-63
2023/11/29 06:37:33;;;;;;;12.73;4.75;;;3.50;99.90;;;;;;5030154;28;20052;-64
2023/11/29 06:40:02;;;;;;;8.80;5.20;;;3.50;99.90;;;;;;5010299;28;20041;-64
2023/11/29 06:42:30;;;;;;;8.63;4.55;;;3.50;99.90;;;;;;4996897;28;20038;-66
2023/11/29 06:44:57;;;;;;;7.90;4.32;;;3.40;99.90;;;;;;5009508;28;20402;-64
2023/11/29 06:47:23;;;;;;;10.35;5.65;;;3.40;99.90;;;;;;5028928;28;20447;-64
2023/11/29 06:49:51;;;;;;;12.45;5.90;;;3.30;99.90;;;;;;5024054;28;20058;-64
2023/11/29 06:52:18;;;;;;;12.60;5.30;;;3.30;99.90;;;;;;5017016;28;20496;-64
2023/11/29 06:54:45;;;;;;;9.20;5.20;;;3.30;99.90;;;;;;5027445;28;20046;-64
2023/11/29 06:57:12;;;;;;;14.30;5.05;;;3.20;99.90;;;;;;5028655;28;20061;-64
2023/11/29 06:59:39;;;;;;;13.38;6.50;;;3.40;99.90;;;;;;5026632;28;20045;-64
2023/11/29 07:02:06;;;;;;;17.23;6.30;;;3.20;99.90;;;;;;5011955;28;20572;-64
2023/11/29 07:04:33;;;;;;;10.63;5.82;;;3.10;99.90;;;;;;5027462;28;20041;-64
2023/11/29 07:07:03;;;;;;;12.07;5.63;;;3.10;99.90;;;;;;5021644;28;20634;-64
2023/11/29 07:09:30;;;;;;;22.27;6.38;;;3.10;99.90;;;;;;5022576;28;20413;-64
2023/11/29 07:11:57;;;;;;;18.88;6.82;;;3.10;99.90;;;;;;5029520;28;20048;-63
2023/11/29 07:14:24;;;;;;;13.25;6.45;;;3.10;99.90;;;;;;5028642;28;20059;-64
2023/11/29 07:16:52;;;;;;;12.18;6.35;;;3.00;99.90;;;;;;5004236;28;20052;-65
2023/11/29 07:19:19;;;;;;;13.18;5.82;;;3.00;99.90;;;;;;5025931;28;20123;-64
2023/11/29 07:21:46;;;;;;;14.13;6.43;;;2.90;99.90;;;;;;5027903;28;20492;-64
2023/11/29 07:24:13;;;;;;;15.05;7.25;;;2.80;99.90;;;;;;5027148;28;20490;-64
2023/11/29 07:26:40;;;;;;;9.90;6.50;;;2.80;99.90;;;;;;5025349;28;20558;-62
2023/11/29 07:29:08;;;;;;;11.30;4.97;;;2.70;99.90;;;;;;5028779;28;20378;-64
2023/11/29 07:31:35;;;;;;;16.27;6.15;;;2.50;99.90;;;;;;5026818;28;20049;-64
2023/11/29 07:34:02;;;;;;;8.85;6.38;;;2.40;99.90;;;;;;5026550;28;20042;-64
2023/11/29 07:36:29;;;;;;;11.10;6.20;;;2.30;99.90;;;;;;5019652;28;20053;-65
2023/11/29 07:38:58;;;;;;;14.13;5.85;;;2.30;99.90;;;;;;5017283;28;20042;-63
2023/11/29 07:41:26;;;;;;;10.70;6.00;;;2.30;99.90;;;;;;5023435;28;20057;-64
2023/11/29 07:43:54;;;;;;;12.48;6.15;;;2.30;99.90;;;;;;5026133;28;20057;-64
2023/11/29 07:46:21;;;;;;;12.70;6.30;;;2.30;99.90;;;;;;5026172;28;20164;-65
2023/11/29 07:48:48;;;;;;;12.80;6.85;;;2.30;99.90;;;;;;5026217;28;20085;-63
2023/11/29 07:51:15;;;;;;;9.93;5.72;;;2.20;99.90;;;;;;5022308;28;20049;-64
2023/11/29 07:53:44;;;;;;;16.17;5.82;;;2.20;99.90;;;;;;5018954;28;20042;-66
2023/11/29 07:56:12;;;;;;;9.68;6.38;;;2.20;99.90;;;;;;5023802;28;20496;-65
2023/11/29 07:58:39;;;;;;;13.43;6.85;;;2.10;99.90;;;;;;5026840;28;20045;-66
2023/11/29 08:01:06;;;;;;;12.05;6.32;;;2.10;99.90;;;;;;5027227;28;20052;-66
2023/11/29 08:03:34;;;;;;;11.63;7.13;;;2.10;99.90;;;;;;5025248;28;20100;-65
2023/11/29 08:06:01;;;;;;;14.80;6.55;;;2.00;99.90;;;;;;5027140;28;20389;-66
2023/11/29 08:08:28;;;;;;;16.92;7.07;;;2.00;99.90;;;;;;5024795;28;20396;-66
2023/11/29 08:10:55;;;;;;;9.43;6.43;;;2.10;99.90;;;;;;5023675;28;20050;-66
2023/11/29 08:13:23;;;;;;;17.58;7.63;;;2.10;99.90;;;;;;5002269;28;20463;-66
2023/11/29 08:15:50;;;;;;;13.77;6.90;;;2.10;99.90;;;;;;4675945;28;10000425;-66
2023/11/29 08:18:18;;;;;;;13.77;6.35;;;2.30;99.90;;;;;;5022748;28;20103;-65
2023/11/29 08:20:45;;;;;;;16.90;7.93;;;2.20;99.90;;;;;;5020980;28;20174;-65
2023/11/29 08:23:12;;;;;;;13.20;7.30;;;2.20;99.90;;;;;;5007275;28;20358;-66
2023/11/29 08:25:39;;;;;;;19.30;7.30;;;2.30;99.90;;;;;;5007805;28;20406;-65
2023/11/29 08:28:05;;;;;;;15.57;8.10;;;2.20;99.90;;;;;;5024528;28;20053;-66
2023/11/29 08:30:32;;;;;;;9.77;6.05;;;2.30;99.90;;;;;;5025205;28;20111;-66
2023/11/29 08:33:00;;;;;;;11.60;5.97;;;2.30;99.90;;;;;;4989204;28;20409;-65
2023/11/29 08:35:27;;;;;;;11.57;5.97;;;2.30;99.90;;;;;;5012614;28;20062;-66
2023/11/29 08:37:54;;;;;;;11.15;6.93;;;2.40;99.90;;;;;;5011968;28;20143;-64
2023/11/29 08:40:21;;;;;;;13.30;6.70;;;2.50;99.90;;;;;;5024225;28;20775;-66
2023/11/29 08:42:48;;;;;;;13.32;6.53;;;2.50;99.90;;;;;;5024858;28;20052;-66
2023/11/29 08:45:15;;;;;;;11.02;5.82;;;2.60;99.90;;;;;;5021845;28;20246;-67
2023/11/29 08:47:42;;;;;;;11.48;6.97;;;2.60;99.90;;;;;;5021355;28;20080;-65
2023/11/29 08:50:09;;;;;;;12.55;7.05;;;2.70;99.90;;;;;;4991594;28;20481;-66
2023/11/29 08:52:36;;;;;;;9.63;5.70;;;2.70;99.90;;;;;;5025090;28;20532;-65
2023/11/29 08:55:05;;;;;;;13.52;7.10;;;2.80;99.90;;;;;;5025091;28;20049;-71
2023/11/29 08:57:32;;;;;;;11.52;6.60;;;2.90;99.90;;;;;;5025658;28;20045;-66
2023/11/29 08:59:59;;;;;;;15.77;7.40;;;3.00;99.90;;;;;;5024620;28;20045;-66
2023/11/29 09:02:29;;;;;;;15.98;7.40;;;3.10;99.90;;;;;;5016403;28;20045;-66
2023/11/29 09:04:56;;;;;;;13.77;7.60;;;3.10;99.90;;;;;;5020992;28;20520;-66
2023/11/29 09:07:23;;;;;;;12.55;6.60;;;3.10;99.90;;;;;;4998669;28;20426;-66
2023/11/29 09:09:50;;;;;;;18.35;7.50;;;3.20;99.90;;;;;;5020881;28;20423;-66
2023/11/29 09:12:17;;;;;;;18.50;7.68;;;3.20;99.90;;;;;;5020585;28;20555;-65
2023/11/29 09:14:44;;;;;;;15.95;7.78;;;3.30;99.90;;;;;;5020571;28;20045;-65
2023/11/29 09:17:11;;;;;;;17.90;8.15;;;3.30;99.90;;;;;;5016090;28;20585;-65
2023/11/29 09:19:38;;;;;;;12.80;7.63;;;3.30;99.90;;;;;;5015712;28;20054;-65
2023/11/29 09:22:05;;;;;;;12.32;8.23;;;3.40;99.90;;;;;;5016299;28;20061;-65
2023/11/29 09:24:32;;;;;;;16.98;7.93;;;3.40;99.90;;;;;;5021972;28;20046;-66
2023/11/29 09:26:59;;;;;;;17.52;7.82;;;3.50;99.90;;;;;;5023657;28;20388;-65
2023/11/29 09:29:26;;;;;;;18.65;8.40;;;3.50;99.90;;;;;;5018924;28;20136;-64
2023/11/29 09:31:53;;;;;;;22.17;11.85;;;3.60;99.90;;;;;;5024452;28;20060;-65
2023/11/29 09:34:22;;;;;;;19.17;10.45;;;3.60;99.90;;;;;;5021392;28;20045;-66
2023/11/29 09:36:50;;;;;;;14.80;8.93;;;3.70;99.90;;;;;;5008247;28;20060;-65
2023/11/29 09:39:17;;;;;;;21.67;11.25;;;3.70;99.90;;;;;;5020302;28;20049;-66
2023/11/29 09:41:45;;;;;;;15.43;8.23;;;3.80;99.90;;;;;;5000666;28;20041;-66
2023/11/29 09:44:13;;;;;;;18.48;8.75;;;3.70;99.90;;;;;;5020627;28;20033;-65
2023/11/29 09:46:40;;;;;;;14.27;8.10;;;3.70;99.90;;;;;;5024984;28;20436;-65
2023/11/29 09:49:07;;;;;;;20.75;9.63;;;3.80;99.90;;;;;;5008504;28;20449;-65
2023/11/29 09:51:34;;;;;;;18.83;9.07;;;3.80;99.90;;;;;;5025371;28;20107;-65
2023/11/29 09:54:01;;;;;;;22.15;7.45;;;3.80;99.90;;;;;;5027425;28;20466;-65
2023/11/29 09:56:28;;;;;;;20.98;8.50;;;3.80;99.90;;;;;;5020295;28;20057;-64
2023/11/29 09:58:58;;;;;;;24.48;9.18;;;3.80;99.90;;;;;;5021766;28;20325;-65
2023/11/29 10:01:26;;;;;;;16.70;9.00;;;3.80;99.90;;;;;;5024119;28;20156;-65
2023/11/29 10:04:03;;;;;;;22.30;8.38;;;3.90;99.90;;;;;;5023452;28;20249;-65
2023/11/29 10:06:30;;;;;;;20.33;8.55;;;3.90;99.90;;;;;;5025728;28;20095;-67
2023/11/29 10:09:04;;;;;;;18.08;8.48;;;4.00;99.90;;;;;;5025568;28;20048;-64
2023/11/29 10:11:34;;;;;;;21.05;8.52;;;4.00;99.90;;;;;;5026200;28;20480;-66
2023/11/29 10:14:04;;;;;;;22.35;8.52;;;4.00;99.90;;;;;;5009490;28;20058;-68
2023/11/29 10:16:31;;;;;;;21.42;8.13;;;4.10;99.90;;;;;;5027121;28;20121;-66
2023/11/29 10:19:03;;;;;;;16.52;8.77;;;4.20;99.90;;;;;;5027086;28;20045;-66
2023/11/29 10:21:30;;;;;;;22.38;10.38;;;4.20;99.90;;;;;;5009323;28;20064;-66
2023/11/29 10:23:57;;;;;;;22.00;10.15;;;4.30;99.90;;;;;;5027489;28;20053;-68
2023/11/29 10:26:27;;;;;;;20.35;10.27;;;4.30;99.90;;;;;;5026845;28;20535;-66
2023/11/29 10:28:54;;;;;;;16.77;10.10;;;4.40;99.90;;;;;;5022332;28;20038;-67
2023/11/29 10:31:21;;;;;;;26.30;11.40;;;4.40;99.90;;;;;;5007171;28;20045;-66
2023/11/29 10:33:49;;;;;;;14.45;8.27;;;4.50;99.90;;;;;;5026991;28;20475;-66
2023/11/29 10:36:17;;;;;;;21.55;11.10;;;4.50;99.90;;;;;;5007688;28;20045;-67
2023/11/29 10:38:50;;;;;;;20.08;9.15;;;4.60;99.90;;;;;;5011335;28;20111;-66
2023/11/29 10:41:17;;;;;;;26.15;9.18;;;4.60;99.90;;;;;;5013196;28;20500;-66
2023/11/29 10:43:44;;;;;;;16.25;8.20;;;4.70;99.90;;;;;;5013648;28;20115;-67
2023/11/29 10:46:28;;;;;;;16.73;8.38;;;4.70;99.90;;;;;;5013088;28;20080;-67
2023/11/29 10:49:18;;;;;;;20.90;8.88;;;4.70;99.90;;;;;;4997303;28;20045;-66
2023/11/29 10:51:45;;;;;;;22.17;9.07;;;4.70;99.90;;;;;;5016734;28;20041;-64
2023/11/29 10:54:14;;;;;;;17.80;10.15;;;4.80;99.90;;;;;;5013429;28;20053;-68
2023/11/29 10:57:02;;;;;;;21.65;9.57;;;4.80;99.90;;;;;;5001449;28;20117;-65
2023/11/29 10:59:30;;;;;;;17.63;8.93;;;4.80;99.90;;;;;;5013358;28;20460;-65
2023/11/29 11:01:57;;;;;;;25.85;9.23;;;4.80;99.90;;;;;;5012196;28;20056;-66
2023/11/29 11:04:34;;;;;;;16.60;10.48;;;4.80;99.90;;;;;;5030931;28;20103;-68
2023/11/29 11:07:05;;;;;;;18.33;9.27;;;4.80;99.90;;;;;;5008906;28;20041;-65
2023/11/29 11:09:36;;;;;;;21.77;11.45;;;4.90;99.90;;;;;;5015979;28;20042;-65
2023/11/29 11:12:06;;;;;;;22.58;9.65;;;4.90;99.90;;;;;;5017124;28;20072;-65
2023/11/29 11:14:53;;;;;;;15.65;8.10;;;5.00;99.90;;;;;;5034235;28;20058;-64
2023/11/29 11:17:22;;;;;;;19.50;9.63;;;5.10;99.90;;;;;;5010838;28;20054;-65
2023/11/29 11:19:50;;;;;;;23.85;10.02;;;5.20;99.90;;;;;;5012613;28;20484;-65
2023/11/29 11:22:30;;;;;;;16.38;8.38;;;5.20;99.90;;;;;;5013066;28;20053;-65
2023/11/29 11:25:07;;;;;;;26.13;9.93;;;5.20;99.90;;;;;;5030256;28;20049;-65
2023/11/29 11:27:36;;;;;;;17.23;8.07;;;5.30;99.90;;;;;;5030243;28;20097;-66
2023/11/29 11:30:26;;;;;;;17.55;8.02;;;5.40;99.90;;;;;;5027968;28;20053;-65
2023/11/29 11:32:57;;;;;;;14.68;7.40;;;5.40;99.90;;;;;;5028122;28;20113;-66
2023/11/29 11:35:31;;;;;;;13.02;7.22;;;5.50;99.90;;;;;;5030117;28;20052;-67
2023/11/29 11:38:00;;;;;;;17.52;7.43;;;5.50;99.90;;;;;;5029658;28;20053;-66
2023/11/29 11:40:32;;;;;;;16.63;7.10;;;5.50;99.90;;;;;;5006171;28;20050;-64
2023/11/29 11:43:00;;;;;;;24.88;7.38;;;5.50;99.90;;;;;;5027553;28;20053;-66
2023/11/29 11:45:29;;;;;;;16.45;7.15;;;5.50;99.90;;;;;;5026768;28;20493;-65
2023/11/29 11:47:56;;;;;;;12.48;6.72;;;5.40;99.90;;;;;;4678690;28;10000203;-64
2023/11/29 11:50:25;;;;;;;14.82;7.35;;;5.50;99.90;;;;;;5027677;28;20047;-65
2023/11/29 11:52:53;;;;;;;12.43;6.50;;;5.50;99.90;;;;;;5010835;28;20124;-65
2023/11/29 11:55:20;;;;;;;18.48;7.90;;;5.50;99.90;;;;;;5029439;28;20049;-66
2023/11/29 11:57:47;;;;;;;15.15;7.97;;;5.60;99.90;;;;;;5029837;28;20489;-66
2023/11/29 12:00:14;;;;;;;16.38;8.85;;;5.60;99.90;;;;;;5012975;28;20550;-65
2023/11/29 12:02:41;;;;;;;17.05;6.72;;;5.70;99.90;;;;;;5030049;28;20073;-65
2023/11/29 12:05:08;;;;;;;21.67;7.55;;;5.60;99.90;;;;;;5011927;28;20033;-65
2023/11/29 12:07:39;;;;;;;16.58;7.60;;;5.60;99.90;;;;;;5029879;28;20057;-65
2023/11/29 12:10:12;;;;;;;16.77;6.60;;;5.60;99.90;;;;;;5007423;28;20042;-65
2023/11/29 12:12:40;;;;;;;17.35;7.00;;;5.70;99.90;;;;;;5023360;28;20415;-66
2023/11/29 12:15:15;;;;;;;21.42;7.35;;;5.70;99.90;;;;;;5029389;28;20049;-65
2023/11/29 12:17:43;;;;;;;16.60;7.78;;;5.70;99.90;;;;;;5011567;28;20132;-65
2023/11/29 12:20:11;;;;;;;25.95;8.55;;;5.90;99.90;;;;;;5028626;28;20052;-65
2023/11/29 12:22:40;;;;;;;14.55;7.40;;;6.00;99.90;;;;;;5011619;28;20054;-67
2023/11/29 12:25:11;;;;;;;24.35;8.70;;;6.00;99.90;;;;;;5026217;28;20055;-65
2023/11/29 12:27:40;;;;;;;19.88;9.10;;;6.00;99.90;;;;;;5026352;28;20077;-65
2023/11/29 12:30:08;;;;;;;17.83;8.32;;;6.00;99.90;;;;;;5028278;28;20740;-66
2023/11/29 12:32:36;;;;;;;21.48;8.75;;;6.00;99.90;;;;;;5027214;28;20054;-66
2023/11/29 12:35:05;;;;;;;18.15;8.13;;;6.00;99.90;;;;;;4994176;28;20073;-65
2023/11/29 12:37:33;;;;;;;19.35;9.30;;;6.10;99.90;;;;;;5028888;28;20119;-66
2023/11/29 12:40:00;;;;;;;17.85;8.82;;;6.10;99.90;;;;;;5010668;28;20050;-66
2023/11/29 12:42:27;;;;;;;29.92;9.15;;;6.10;99.90;;;;;;5028572;28;20103;-66
2023/11/29 12:44:54;;;;;;;19.15;8.48;;;6.20;99.90;;;;;;5028231;28;20168;-66
2023/11/29 12:47:27;;;;;;;20.13;6.72;;;6.30;99.90;;;;;;5028386;28;20107;-65
2023/11/29 12:49:54;;;;;;;15.65;7.50;;;6.30;99.90;;;;;;5008845;28;20179;-66
2023/11/29 12:52:21;;;;;;;17.60;7.60;;;6.30;99.90;;;;;;5021845;28;20072;-66
2023/11/29 12:54:48;;;;;;;22.70;7.50;;;6.50;99.90;;;;;;5010334;28;20139;-65